SCO16GH EGPA-EGPB

Flight info

Callsign SCO16GH
Flight time 0h 29m
Altitude 15000
Route KOKAL DCT WAFIL
Aircraft AT76/M-SDFGIRY/S

Departure

Time 2026-05-07 14:29
Airport Kirkwall Airport (EGPA)

Arrival

Time 2026-05-07 14:58
Airport Sumburgh Airport (EGPB)
Time Latitude Longitude Altitude Speed Heading
2026-05-07 13:57 58.95444 -2.90189 57 ft 0 kts 212°
2026-05-07 14:22 58.95443 -2.90191 57 ft 0 kts 220°
2026-05-07 14:22 58.95444 -2.90205 50 ft 2 kts 275°
2026-05-07 14:22 58.95467 -2.90250 54 ft 0 kts 310°
2026-05-07 14:24 58.95472 -2.90263 53 ft 9 kts 310°
2026-05-07 14:24 58.95523 -2.90376 53 ft 6 kts 311°
2026-05-07 14:24 58.95562 -2.90582 47 ft 21 kts 277°
2026-05-07 14:25 58.95571 -2.90715 48 ft 13 kts 277°
2026-05-07 14:25 58.95565 -2.90899 46 ft 13 kts 245°
2026-05-07 14:25 58.95529 -2.91055 45 ft 13 kts 261°
2026-05-07 14:25 58.95600 -2.91187 46 ft 20 kts 339°
2026-05-07 14:26 58.95681 -2.91246 46 ft 0 kts 337°
2026-05-07 14:28 58.95735 -2.91288 42 ft 18 kts 346°
2026-05-07 14:28 58.95773 -2.91255 43 ft 4 kts 84°
2026-05-07 14:28 58.95785 -2.90774 44 ft 72 kts 88°
2026-05-07 14:28 58.95819 -2.89368 116 ft 124 kts 89°
2026-05-07 14:29 58.95870 -2.87664 614 ft 143 kts 92°
2026-05-07 14:29 58.96008 -2.85449 939 ft 178 kts 88°
2026-05-07 14:29 58.96198 -2.82968 1517 ft 194 kts 88°
2026-05-07 14:29 58.96525 -2.80353 2009 ft 207 kts 67°
2026-05-07 14:30 58.97606 -2.78485 2527 ft 214 kts 24°
2026-05-07 14:30 58.99013 -2.77542 2960 ft 217 kts 19°
2026-05-07 14:30 59.00451 -2.76559 3349 ft 221 kts 22°
2026-05-07 14:30 59.01872 -2.75322 3746 ft 226 kts 27°
2026-05-07 14:31 59.03247 -2.73797 4130 ft 229 kts 33°
2026-05-07 14:31 59.04584 -2.72079 4518 ft 232 kts 36°
2026-05-07 14:31 59.05913 -2.70285 4908 ft 233 kts 36°
2026-05-07 14:31 59.07245 -2.68471 5302 ft 235 kts 36°
2026-05-07 14:32 59.08599 -2.66677 5713 ft 235 kts 34°
2026-05-07 14:32 59.09947 -2.64947 6241 ft 229 kts 34°
2026-05-07 14:32 59.11267 -2.63267 6746 ft 225 kts 34°
2026-05-07 14:32 59.12561 -2.61607 7256 ft 221 kts 33°
2026-05-07 14:33 59.13832 -2.59971 7757 ft 217 kts 33°
2026-05-07 14:33 59.15084 -2.58359 8282 ft 213 kts 33°
2026-05-07 14:33 59.16311 -2.56778 8812 ft 210 kts 33°
2026-05-07 14:33 59.17517 -2.55222 9366 ft 206 kts 33°
2026-05-07 14:34 59.18696 -2.53700 9881 ft 201 kts 32°
2026-05-07 14:34 59.19851 -2.52208 10370 ft 196 kts 32°
2026-05-07 14:34 59.20970 -2.50762 10868 ft 190 kts 32°
2026-05-07 14:34 59.22048 -2.49367 11369 ft 182 kts 32°
2026-05-07 14:35 59.23113 -2.47965 11705 ft 185 kts 32°
2026-05-07 14:35 59.24179 -2.46579 12085 ft 183 kts 31°
2026-05-07 14:35 59.25237 -2.45232 12477 ft 180 kts 30°
2026-05-07 14:35 59.26284 -2.43919 12817 ft 179 kts 29°
2026-05-07 14:36 59.27386 -2.42541 12923 ft 197 kts 30°
2026-05-07 14:36 59.28589 -2.41027 12973 ft 211 kts 31°
2026-05-07 14:36 59.29823 -2.39432 12992 ft 213 kts 31°
2026-05-07 14:36 59.31058 -2.37824 12992 ft 211 kts 31°
2026-05-07 14:37 59.32258 -2.36254 12999 ft 204 kts 31°
2026-05-07 14:37 59.34569 -2.33229 13000 ft 198 kts 31°
2026-05-07 14:37 59.35716 -2.31731 13000 ft 198 kts 31°
2026-05-07 14:38 59.36859 -2.30238 13009 ft 197 kts 31°
2026-05-07 14:38 59.37998 -2.28749 13010 ft 197 kts 31°
2026-05-07 14:38 59.39136 -2.27258 13008 ft 197 kts 31°
2026-05-07 14:38 59.40258 -2.25784 13011 ft 196 kts 31°
2026-05-07 14:39 59.41392 -2.24294 13007 ft 196 kts 31°
2026-05-07 14:39 59.42525 -2.22803 13015 ft 196 kts 31°
2026-05-07 14:39 59.43656 -2.21313 13012 ft 195 kts 31°
2026-05-07 14:39 59.44782 -2.19827 13012 ft 195 kts 31°
2026-05-07 14:40 59.45909 -2.18342 13012 ft 195 kts 31°
2026-05-07 14:40 59.47032 -2.16859 13012 ft 195 kts 31°
2026-05-07 14:40 59.48156 -2.15372 13013 ft 195 kts 31°
2026-05-07 14:40 59.49279 -2.13888 13011 ft 194 kts 31°
2026-05-07 14:41 59.50401 -2.12407 13014 ft 194 kts 31°
2026-05-07 14:41 59.51536 -2.10904 13015 ft 202 kts 31°
2026-05-07 14:41 59.52729 -2.09317 13014 ft 213 kts 32°
2026-05-07 14:41 59.54048 -2.07562 12522 ft 244 kts 32°
2026-05-07 14:42 59.55527 -2.05584 12011 ft 268 kts 33°
2026-05-07 14:42 59.57120 -2.03454 11500 ft 284 kts 33°
2026-05-07 14:42 59.58788 -2.01226 10986 ft 295 kts 33°
2026-05-07 14:42 59.60497 -1.98939 10479 ft 299 kts 33°
2026-05-07 14:43 59.62192 -1.96674 9978 ft 283 kts 34°
2026-05-07 14:43 59.63764 -1.94567 9443 ft 265 kts 34°
2026-05-07 14:43 59.65258 -1.92568 8886 ft 253 kts 34°
2026-05-07 14:43 59.66755 -1.90553 8348 ft 269 kts 35°
2026-05-07 14:44 59.68343 -1.88414 7833 ft 283 kts 35°
2026-05-07 14:44 59.70000 -1.86187 7322 ft 291 kts 35°
2026-05-07 14:44 59.71692 -1.83908 6823 ft 297 kts 36°
2026-05-07 14:44 59.73393 -1.81615 6472 ft 293 kts 36°
2026-05-07 14:45 59.75081 -1.79339 6055 ft 293 kts 36°
2026-05-07 14:45 59.76733 -1.77107 5765 ft 282 kts 36°
2026-05-07 14:45 59.78329 -1.74950 5458 ft 274 kts 37°
2026-05-07 14:45 59.79883 -1.72845 5151 ft 266 kts 36°
2026-05-07 14:46 59.81390 -1.70805 4825 ft 259 kts 37°
2026-05-07 14:46 59.82867 -1.68796 4500 ft 255 kts 37°
2026-05-07 14:46 59.84269 -1.66895 4160 ft 236 kts 37°
2026-05-07 14:46 59.85576 -1.65118 3781 ft 221 kts 38°
2026-05-07 14:47 59.86812 -1.63430 3376 ft 212 kts 38°
2026-05-07 14:47 59.88011 -1.61792 2968 ft 205 kts 38°
2026-05-07 14:47 59.89171 -1.60204 2526 ft 201 kts 39°
2026-05-07 14:47 59.90311 -1.58643 2122 ft 195 kts 39°
2026-05-07 14:48 59.91385 -1.57181 2063 ft 180 kts 41°
2026-05-07 14:48 59.92374 -1.55811 2032 ft 166 kts 42°
2026-05-07 14:48 59.93293 -1.54526 2027 ft 160 kts 43°
2026-05-07 14:48 59.93909 -1.53665 2027 ft 159 kts 43°
2026-05-07 14:49 59.94813 -1.52400 2031 ft 158 kts 43°
2026-05-07 14:49 59.95699 -1.51158 2027 ft 157 kts 43°
2026-05-07 14:49 59.96490 -1.49748 2015 ft 147 kts 50°
2026-05-07 14:49 59.97419 -1.48582 1818 ft 180 kts 36°
2026-05-07 14:50 59.98625 -1.47350 1950 ft 209 kts 30°
2026-05-07 14:50 60.00030 -1.46078 2008 ft 234 kts 27°
2026-05-07 14:50 60.01580 -1.44701 2031 ft 252 kts 27°
2026-05-07 14:50 60.03218 -1.43242 2029 ft 262 kts 26°
2026-05-07 14:51 60.04914 -1.42607 2013 ft 234 kts 352°
2026-05-07 14:51 60.06268 -1.43778 2006 ft 196 kts 309°
2026-05-07 14:51 60.06816 -1.45884 2013 ft 154 kts 259°
2026-05-07 14:51 60.06468 -1.47536 2023 ft 117 kts 215°
2026-05-07 14:52 60.05909 -1.48673 2034 ft 112 kts 216°
2026-05-07 14:52 60.05344 -1.49695 2036 ft 104 kts 202°
2026-05-07 14:52 60.04685 -1.49775 2024 ft 94 kts 174°
2026-05-07 14:52 60.04024 -1.49390 2022 ft 110 kts 163°
2026-05-07 14:53 60.03255 -1.48718 2021 ft 130 kts 161°
2026-05-07 14:53 60.02396 -1.47889 2025 ft 143 kts 159°
2026-05-07 14:53 60.01464 -1.46995 2030 ft 153 kts 160°
2026-05-07 14:53 60.00476 -1.46060 2032 ft 161 kts 160°
2026-05-07 14:54 59.99444 -1.45094 2028 ft 166 kts 160°
2026-05-07 14:54 59.98392 -1.44115 2025 ft 166 kts 160°
2026-05-07 14:54 59.97359 -1.43145 2020 ft 163 kts 160°
2026-05-07 14:54 59.96348 -1.42163 2023 ft 161 kts 157°
2026-05-07 14:55 59.95396 -1.41010 2025 ft 161 kts 150°
2026-05-07 14:55 59.94544 -1.39561 2025 ft 161 kts 145°
2026-05-07 14:55 59.93710 -1.38010 1807 ft 166 kts 144°
2026-05-07 14:55 59.92948 -1.36625 1519 ft 122 kts 150°
2026-05-07 14:56 59.92356 -1.35657 1142 ft 101 kts 150°
2026-05-07 14:56 59.91830 -1.34863 883 ft 88 kts 153°
2026-05-07 14:56 59.91317 -1.34215 710 ft 87 kts 153°
2026-05-07 14:56 59.90802 -1.33601 584 ft 87 kts 154°
2026-05-07 14:57 59.90255 -1.32944 519 ft 94 kts 152°
2026-05-07 14:57 59.89692 -1.32243 429 ft 97 kts 149°
2026-05-07 14:57 59.89148 -1.31459 335 ft 96 kts 146°
2026-05-07 14:57 59.88603 -1.30669 207 ft 98 kts 146°
2026-05-07 14:58 59.88055 -1.29859 86 ft 94 kts 143°
2026-05-07 14:58 59.87582 -1.29170 14 ft 67 kts 142°
2026-05-07 14:58 59.87381 -1.28857 13 ft 23 kts 143°
2026-05-07 14:58 59.87380 -1.28744 14 ft 13 kts 44°
2026-05-07 14:59 59.87464 -1.28776 16 ft 23 kts 336°
2026-05-07 14:59 59.87578 -1.28918 15 ft 15 kts 326°
2026-05-07 14:59 59.87639 -1.28854 16 ft 16 kts 53°
2026-05-07 14:59 59.87703 -1.28810 17 ft 4 kts 308°
2026-05-07 15:00 59.87689 -1.28856 16 ft 2 kts 202°
2026-05-07 15:00 59.87677 -1.28865 16 ft 0 kts 200°